KSMN

Details ICAO KSMN (SMN)
Name LEMHI CO
Region United States
Timezone America/Boise (UTC-6.0)
Plans Departing 7
Arriving 8
Stats Elevation 4,043 ft / 1,232 m (AMSL)
Location 45.123781° -113.881332°
Runways 1
Magnetic Variation 12.837° E
Sunrise 2018-05-20 12:02:10 UTC / 2018-05-20 06:02:10 Local
Sunset 2018-05-21 03:04:50 UTC / 2018-05-20 21:04:50 Local
Advertisement - Login to hide

Runways

ID Width Length Bearing (true) Bearing (mag) Surface Threshold Offset Overrun Length
17 60 ft / 18 m 5,152 ft / 1,570 m 187.76° 174.92° Asphalt 0 ft / 0 m 0 ft / 0 m
35 60 ft / 18 m 5,152 ft / 1,570 m 7.76° 354.92° Asphalt 0 ft / 0 m 0 ft / 0 m

Map

Weather


0- 5 10 15 20 25 30 35+ Temperature / ° C

Clouds and Precipitation
Forecast for 2018-05-20 18:00 UTC. Updated 40 minutes ago

Ground ~20,000 ft ~40,000 ft Winds

METAR

KSMN 201756Z AUTO 28004KT 10SM CLR 18/08 A2996 RMK AO2 SLP126 T01830083 10183 20056 58022

TAF

KSMN 201734Z 2018/2118 21008KT P6SM VCTS BKN080CB FM202100 18009KT P6SM VCSH BKN100

Frequencies

Recorded 135.07 MHz AWOS 3
Unicom 122.80 MHz CTAF/UNICOM
Warning: Do not use this data for real-world aviation or navigation. No guarantee of current accuracy is given.